sensor_id;sensor_type;location;lat;lon;timestamp;pressure;altitude;pressure_sealevel;temperature;humidity
21545;BME280;10933;50.754;11.508;2023-12-22T00:00:06;97607.63;;;6.13;nan
21545;BME280;10933;50.754;11.508;2023-12-22T00:02:33;97601.47;;;5.93;nan
21545;BME280;10933;50.754;11.508;2023-12-22T00:04:59;97619.38;;;6.28;nan
21545;BME280;10933;50.754;11.508;2023-12-22T00:07:25;97615.63;;;6.08;nan
21545;BME280;10933;50.754;11.508;2023-12-22T00:09:52;97610.84;;;6.05;nan
21545;BME280;10933;50.754;11.508;2023-12-22T00:12:18;97611.09;;;6.09;nan
21545;BME280;10933;50.754;11.508;2023-12-22T00:14:44;97618.31;;;6.13;nan
21545;BME280;10933;50.754;11.508;2023-12-22T00:17:10;97634.66;;;6.12;nan
21545;BME280;10933;50.754;11.508;2023-12-22T00:19:36;97639.72;;;6.34;nan
21545;BME280;10933;50.754;11.508;2023-12-22T00:22:02;97646.41;;;6.21;nan
21545;BME280;10933;50.754;11.508;2023-12-22T00:24:29;97654.97;;;6.43;nan
21545;BME280;10933;50.754;11.508;2023-12-22T00:26:55;97631.41;;;6.20;nan
21545;BME280;10933;50.754;11.508;2023-12-22T00:29:21;97641.59;;;6.18;nan
21545;BME280;10933;50.754;11.508;2023-12-22T00:31:47;97638.91;;;6.33;nan
21545;BME280;10933;50.754;11.508;2023-12-22T00:34:14;97645.88;;;6.29;nan
21545;BME280;10933;50.754;11.508;2023-12-22T00:36:40;97637.84;;;6.09;nan
21545;BME280;10933;50.754;11.508;2023-12-22T00:39:06;97656.59;;;6.14;nan
21545;BME280;10933;50.754;11.508;2023-12-22T00:41:33;97648.56;;;6.09;nan
21545;BME280;10933;50.754;11.508;2023-12-22T00:43:59;97652.31;;;6.28;nan
21545;BME280;10933;50.754;11.508;2023-12-22T00:46:25;97652.31;;;6.18;nan
21545;BME280;10933;50.754;11.508;2023-12-22T00:48:51;97647.75;;;6.29;nan
21545;BME280;10933;50.754;11.508;2023-12-22T00:51:17;97638.41;;;6.26;nan
21545;BME280;10933;50.754;11.508;2023-12-22T00:53:43;97639.47;;;6.35;nan
21545;BME280;10933;50.754;11.508;2023-12-22T00:56:09;97640.25;;;6.36;nan
21545;BME280;10933;50.754;11.508;2023-12-22T00:58:39;97638.38;;;6.31;nan
21545;BME280;10933;50.754;11.508;2023-12-22T01:01:05;97651.78;;;6.11;nan
21545;BME280;10933;50.754;11.508;2023-12-22T01:03:31;97662.72;;;6.35;nan
21545;BME280;10933;50.754;11.508;2023-12-22T01:05:57;97634.34;;;6.34;nan
21545;BME280;10933;50.754;11.508;2023-12-22T01:08:23;97640.22;;;6.46;nan
21545;BME280;10933;50.754;11.508;2023-12-22T01:10:49;97645.31;;;6.63;nan
21545;BME280;10933;50.754;11.508;2023-12-22T01:13:15;97652.28;;;6.33;nan
21545;BME280;10933;50.754;11.508;2023-12-22T01:15:41;97650.94;;;6.51;nan
21545;BME280;10933;50.754;11.508;2023-12-22T01:18:10;97640.50;;;6.34;nan
21545;BME280;10933;50.754;11.508;2023-12-22T01:20:36;97642.06;;;6.66;nan
21545;BME280;10933;50.754;11.508;2023-12-22T01:23:02;97628.13;;;6.69;nan
21545;BME280;10933;50.754;11.508;2023-12-22T01:25:28;97635.41;;;6.48;nan
21545;BME280;10933;50.754;11.508;2023-12-22T01:27:54;97639.19;;;6.22;nan
21545;BME280;10933;50.754;11.508;2023-12-22T01:30:20;97638.38;;;6.36;nan
21545;BME280;10933;50.754;11.508;2023-12-22T01:32:46;97655.00;;;6.18;nan
21545;BME280;10933;50.754;11.508;2023-12-22T01:35:12;97664.31;;;6.61;nan
21545;BME280;10933;50.754;11.508;2023-12-22T01:37:39;97668.63;;;6.22;nan
21545;BME280;10933;50.754;11.508;2023-12-22T01:40:05;97681.50;;;6.30;nan
21545;BME280;10933;50.754;11.508;2023-12-22T01:42:32;97671.59;;;6.00;nan
21545;BME280;10933;50.754;11.508;2023-12-22T01:44:58;97683.38;;;6.14;nan
21545;BME280;10933;50.754;11.508;2023-12-22T01:47:24;97683.91;;;6.21;nan
21545;BME280;10933;50.754;11.508;2023-12-22T01:49:50;97661.44;;;6.02;nan
21545;BME280;10933;50.754;11.508;2023-12-22T01:52:17;97686.03;;;6.34;nan
21545;BME280;10933;50.754;11.508;2023-12-22T01:54:43;97686.56;;;6.21;nan
21545;BME280;10933;50.754;11.508;2023-12-22T01:57:12;97687.66;;;6.40;nan
21545;BME280;10933;50.754;11.508;2023-12-22T01:59:39;97688.72;;;6.04;nan
21545;BME280;10933;50.754;11.508;2023-12-22T02:02:05;97684.69;;;6.32;nan
21545;BME280;10933;50.754;11.508;2023-12-22T02:04:32;97662.75;;;6.14;nan
21545;BME280;10933;50.754;11.508;2023-12-22T02:07:00;97678.53;;;6.52;nan
21545;BME280;10933;50.754;11.508;2023-12-22T02:09:27;97671.59;;;6.20;nan
21545;BME280;10933;50.754;11.508;2023-12-22T02:11:53;97659.78;;;6.31;nan
21545;BME280;10933;50.754;11.508;2023-12-22T02:14:19;97646.16;;;6.07;nan
21545;BME280;10933;50.754;11.508;2023-12-22T02:16:52;97655.53;;;6.05;nan
21545;BME280;10933;50.754;11.508;2023-12-22T02:19:40;97650.16;;;6.30;nan
21545;BME280;10933;50.754;11.508;2023-12-22T02:22:08;97642.94;;;6.20;nan
21545;BME280;10933;50.754;11.508;2023-12-22T02:24:35;97646.97;;;6.18;nan
21545;BME280;10933;50.754;11.508;2023-12-22T02:27:19;97655.25;;;6.42;nan
21545;BME280;10933;50.754;11.508;2023-12-22T02:29:54;97671.31;;;6.37;nan
21545;BME280;10933;50.754;11.508;2023-12-22T02:32:27;97660.78;;;6.71;nan
21545;BME280;10933;50.754;11.508;2023-12-22T02:34:56;97662.44;;;6.62;nan
21545;BME280;10933;50.754;11.508;2023-12-22T02:37:23;97669.19;;;6.39;nan
21545;BME280;10933;50.754;11.508;2023-12-22T02:39:51;97663.03;;;6.28;nan
21545;BME280;10933;50.754;11.508;2023-12-22T02:42:19;97681.44;;;6.60;nan
21545;BME280;10933;50.754;11.508;2023-12-22T02:44:46;97665.72;;;6.23;nan
21545;BME280;10933;50.754;11.508;2023-12-22T02:47:12;97662.50;;;5.90;nan
21545;BME280;10933;50.754;11.508;2023-12-22T02:49:38;97640.75;;;5.82;nan
21545;BME280;10933;50.754;11.508;2023-12-22T02:52:04;97643.22;;;6.09;nan
21545;BME280;10933;50.754;11.508;2023-12-22T02:54:31;97644.00;;;5.89;nan
21545;BME280;10933;50.754;11.508;2023-12-22T02:56:59;97641.59;;;6.08;nan
21545;BME280;10933;50.754;11.508;2023-12-22T02:59:26;97633.59;;;5.98;nan
21545;BME280;10933;50.754;11.508;2023-12-22T03:01:54;97629.81;;;6.09;nan
21545;BME280;10933;50.754;11.508;2023-12-22T03:04:20;97645.63;;;6.26;nan
21545;BME280;10933;50.754;11.508;2023-12-22T03:06:46;97657.91;;;5.86;nan
21545;BME280;10933;50.754;11.508;2023-12-22T03:09:12;97674.78;;;6.22;nan
21545;BME280;10933;50.754;11.508;2023-12-22T03:11:38;97682.56;;;6.44;nan
21545;BME280;10933;50.754;11.508;2023-12-22T03:14:04;97682.28;;;6.40;nan
21545;BME280;10933;50.754;11.508;2023-12-22T03:16:30;97681.19;;;6.57;nan
21545;BME280;10933;50.754;11.508;2023-12-22T03:18:57;97672.63;;;6.44;nan
21545;BME280;10933;50.754;11.508;2023-12-22T03:21:23;97663.56;;;6.20;nan
21545;BME280;10933;50.754;11.508;2023-12-22T03:23:49;97678.28;;;6.38;nan
21545;BME280;10933;50.754;11.508;2023-12-22T03:26:15;97707.72;;;6.33;nan
21545;BME280;10933;50.754;11.508;2023-12-22T03:28:41;97745.25;;;6.38;nan
21545;BME280;10933;50.754;11.508;2023-12-22T03:31:07;97722.47;;;6.10;nan
21545;BME280;10933;50.754;11.508;2023-12-22T03:33:34;97733.44;;;6.18;nan
21545;BME280;10933;50.754;11.508;2023-12-22T03:36:00;97719.22;;;5.93;nan
21545;BME280;10933;50.754;11.508;2023-12-22T03:38:26;97717.81;;;5.75;nan
21545;BME280;10933;50.754;11.508;2023-12-22T03:40:52;97716.81;;;6.01;nan
21545;BME280;10933;50.754;11.508;2023-12-22T03:43:18;97701.84;;;6.00;nan
21545;BME280;10933;50.754;11.508;2023-12-22T03:45:44;97707.47;;;6.39;nan
21545;BME280;10933;50.754;11.508;2023-12-22T03:48:10;97716.03;;;6.21;nan
21545;BME280;10933;50.754;11.508;2023-12-22T03:50:38;97703.09;;;5.67;nan
21545;BME280;10933;50.754;11.508;2023-12-22T03:53:04;97703.47;;;6.27;nan
21545;BME280;10933;50.754;11.508;2023-12-22T03:55:30;97698.34;;;6.20;nan
21545;BME280;10933;50.754;11.508;2023-12-22T03:57:56;97683.88;;;5.85;nan
21545;BME280;10933;50.754;11.508;2023-12-22T04:00:22;97694.34;;;6.02;nan
21545;BME280;10933;50.754;11.508;2023-12-22T04:02:49;97736.91;;;6.14;nan
21545;BME280;10933;50.754;11.508;2023-12-22T04:05:15;97751.88;;;6.05;nan
21545;BME280;10933;50.754;11.508;2023-12-22T04:07:41;97778.16;;;6.23;nan
21545;BME280;10933;50.754;11.508;2023-12-22T04:10:07;97762.78;;;5.83;nan
21545;BME280;10933;50.754;11.508;2023-12-22T04:12:33;97720.63;;;5.32;nan
21545;BME280;10933;50.754;11.508;2023-12-22T04:14:59;97719.59;;;5.39;nan
21545;BME280;10933;50.754;11.508;2023-12-22T04:17:25;97725.91;;;5.17;nan
21545;BME280;10933;50.754;11.508;2023-12-22T04:19:51;97724.88;;;5.28;nan
21545;BME280;10933;50.754;11.508;2023-12-22T04:22:18;97737.78;;;5.42;nan
21545;BME280;10933;50.754;11.508;2023-12-22T04:24:44;97745.41;;;5.13;nan
21545;BME280;10933;50.754;11.508;2023-12-22T04:27:10;97729.03;;;4.99;nan
21545;BME280;10933;50.754;11.508;2023-12-22T04:29:36;97738.84;;;5.36;nan
21545;BME280;10933;50.754;11.508;2023-12-22T04:32:03;97758.31;;;5.31;nan
21545;BME280;10933;50.754;11.508;2023-12-22T04:34:29;97749.09;;;5.07;nan
21545;BME280;10933;50.754;11.508;2023-12-22T04:36:55;97752.94;;;4.79;nan
21545;BME280;10933;50.754;11.508;2023-12-22T04:39:21;97756.41;;;5.21;nan
21545;BME280;10933;50.754;11.508;2023-12-22T04:41:47;97750.53;;;4.77;nan
21545;BME280;10933;50.754;11.508;2023-12-22T04:44:13;97725.16;;;4.75;nan
21545;BME280;10933;50.754;11.508;2023-12-22T04:46:39;97722.03;;;4.93;nan
21545;BME280;10933;50.754;11.508;2023-12-22T04:49:06;97716.44;;;4.47;nan
21545;BME280;10933;50.754;11.508;2023-12-22T04:51:32;97711.19;;;4.62;nan
21545;BME280;10933;50.754;11.508;2023-12-22T04:53:58;97721.22;;;4.45;nan
21545;BME280;10933;50.754;11.508;2023-12-22T04:56:25;97713.16;;;4.40;nan
21545;BME280;10933;50.754;11.508;2023-12-22T04:58:51;97728.28;;;4.66;nan
21545;BME280;10933;50.754;11.508;2023-12-22T05:01:17;97734.31;;;4.47;nan
21545;BME280;10933;50.754;11.508;2023-12-22T05:03:45;97723.41;;;4.53;nan
21545;BME280;10933;50.754;11.508;2023-12-22T05:06:11;97741.97;;;4.38;nan
21545;BME280;10933;50.754;11.508;2023-12-22T05:08:37;97730.22;;;4.34;nan
21545;BME280;10933;50.754;11.508;2023-12-22T05:11:03;97751.41;;;4.51;nan
21545;BME280;10933;50.754;11.508;2023-12-22T05:13:29;97749.38;;;4.63;nan
21545;BME280;10933;50.754;11.508;2023-12-22T05:15:55;97735.59;;;4.44;nan
21545;BME280;10933;50.754;11.508;2023-12-22T05:18:21;97750.47;;;4.67;nan
21545;BME280;10933;50.754;11.508;2023-12-22T05:20:47;97734.16;;;4.63;nan
21545;BME280;10933;50.754;11.508;2023-12-22T05:23:15;97747.47;;;4.58;nan
21545;BME280;10933;50.754;11.508;2023-12-22T05:25:41;97753.47;;;4.76;nan
21545;BME280;10933;50.754;11.508;2023-12-22T05:28:07;97747.53;;;4.68;nan
21545;BME280;10933;50.754;11.508;2023-12-22T05:30:33;97744.19;;;4.46;nan
21545;BME280;10933;50.754;11.508;2023-12-22T05:32:59;97742.34;;;4.52;nan
21545;BME280;10933;50.754;11.508;2023-12-22T05:35:25;97739.13;;;4.50;nan
21545;BME280;10933;50.754;11.508;2023-12-22T05:37:51;97753.75;;;4.79;nan
21545;BME280;10933;50.754;11.508;2023-12-22T05:40:17;97739.13;;;4.87;nan
21545;BME280;10933;50.754;11.508;2023-12-22T05:42:43;97739.66;;;4.89;nan
21545;BME280;10933;50.754;11.508;2023-12-22T05:45:11;97738.31;;;4.86;nan
21545;BME280;10933;50.754;11.508;2023-12-22T05:47:37;97735.59;;;4.81;nan
21545;BME280;10933;50.754;11.508;2023-12-22T05:50:04;97732.63;;;4.78;nan
21545;BME280;10933;50.754;11.508;2023-12-22T05:52:30;97722.94;;;4.61;nan
21545;BME280;10933;50.754;11.508;2023-12-22T05:54:56;97707.44;;;4.63;nan
21545;BME280;10933;50.754;11.508;2023-12-22T05:57:24;97701.88;;;4.70;nan
21545;BME280;10933;50.754;11.508;2023-12-22T05:59:50;97709.13;;;4.75;nan
21545;BME280;10933;50.754;11.508;2023-12-22T06:02:16;97717.63;;;4.66;nan
21545;BME280;10933;50.754;11.508;2023-12-22T06:04:43;97727.41;;;4.56;nan
21545;BME280;10933;50.754;11.508;2023-12-22T06:07:10;97728.88;;;4.73;nan
21545;BME280;10933;50.754;11.508;2023-12-22T06:09:36;97717.81;;;4.97;nan
21545;BME280;10933;50.754;11.508;2023-12-22T06:12:02;97702.56;;;4.50;nan
21545;BME280;10933;50.754;11.508;2023-12-22T06:14:29;97698.31;;;4.54;nan
21545;BME280;10933;50.754;11.508;2023-12-22T06:16:55;97705.22;;;4.45;nan
21545;BME280;10933;50.754;11.508;2023-12-22T06:19:23;97721.88;;;4.62;nan
21545;BME280;10933;50.754;11.508;2023-12-22T06:21:50;97728.91;;;4.79;nan
21545;BME280;10933;50.754;11.508;2023-12-22T06:24:17;97723.03;;;4.77;nan
21545;BME280;10933;50.754;11.508;2023-12-22T06:26:43;97721.69;;;4.79;nan
21545;BME280;10933;50.754;11.508;2023-12-22T06:29:09;97726.06;;;4.53;nan
21545;BME280;10933;50.754;11.508;2023-12-22T06:31:35;97727.28;;;4.72;nan
21545;BME280;10933;50.754;11.508;2023-12-22T06:34:01;97720.63;;;4.75;nan
21545;BME280;10933;50.754;11.508;2023-12-22T06:36:28;97703.34;;;4.51;nan
21545;BME280;10933;50.754;11.508;2023-12-22T06:38:56;97700.50;;;4.62;nan
21545;BME280;10933;50.754;11.508;2023-12-22T06:41:28;97692.06;;;4.81;nan
21545;BME280;10933;50.754;11.508;2023-12-22T06:43:55;97698.16;;;4.71;nan
21545;BME280;10933;50.754;11.508;2023-12-22T06:46:24;97704.81;;;4.68;nan
21545;BME280;10933;50.754;11.508;2023-12-22T06:48:52;97722.56;;;4.90;nan
21545;BME280;10933;50.754;11.508;2023-12-22T06:53:51;97721.69;;;4.74;nan
21545;BME280;10933;50.754;11.508;2023-12-22T06:56:22;97728.38;;;4.77;nan
21545;BME280;10933;50.754;11.508;2023-12-22T06:58:48;97728.28;;;4.66;nan
21545;BME280;10933;50.754;11.508;2023-12-22T07:03:49;97781.13;;;4.96;nan
21545;BME280;10933;50.754;11.508;2023-12-22T07:06:16;97801.69;;;5.43;nan
21545;BME280;10933;50.754;11.508;2023-12-22T07:08:43;97806.63;;;5.19;nan
21545;BME280;10933;50.754;11.508;2023-12-22T07:11:12;97815.84;;;5.34;nan
21545;BME280;10933;50.754;11.508;2023-12-22T07:13:38;97832.50;;;5.56;nan
21545;BME280;10933;50.754;11.508;2023-12-22T07:16:05;97816.25;;;5.20;nan
21545;BME280;10933;50.754;11.508;2023-12-22T07:18:32;97833.16;;;5.31;nan
21545;BME280;10933;50.754;11.508;2023-12-22T07:20:59;97831.13;;;5.06;nan
21545;BME280;10933;50.754;11.508;2023-12-22T07:23:26;97830.22;;;5.32;nan
21545;BME280;10933;50.754;11.508;2023-12-22T07:25:52;97825.41;;;5.24;nan
21545;BME280;10933;50.754;11.508;2023-12-22T07:28:18;97837.78;;;5.46;nan
21545;BME280;10933;50.754;11.508;2023-12-22T07:30:44;97838.84;;;5.45;nan
21545;BME280;10933;50.754;11.508;2023-12-22T07:33:10;97839.13;;;5.43;nan
21545;BME280;10933;50.754;11.508;2023-12-22T07:35:36;97830.94;;;5.18;nan
21545;BME280;10933;50.754;11.508;2023-12-22T07:38:02;97862.44;;;5.48;nan
21545;BME280;10933;50.754;11.508;2023-12-22T07:40:28;97856.84;;;5.54;nan
21545;BME280;10933;50.754;11.508;2023-12-22T07:42:56;97860.34;;;5.60;nan
21545;BME280;10933;50.754;11.508;2023-12-22T07:45:23;97846.81;;;5.29;nan
21545;BME280;10933;50.754;11.508;2023-12-22T07:47:49;97859.00;;;5.15;nan
21545;BME280;10933;50.754;11.508;2023-12-22T07:50:15;97863.44;;;5.37;nan
21545;BME280;10933;50.754;11.508;2023-12-22T07:52:41;97860.53;;;5.06;nan
21545;BME280;10933;50.754;11.508;2023-12-22T07:55:09;97858.00;;;4.84;nan
21545;BME280;10933;50.754;11.508;2023-12-22T07:57:37;97850.19;;;4.83;nan
21545;BME280;10933;50.754;11.508;2023-12-22T08:00:06;97847.72;;;5.08;nan
21545;BME280;10933;50.754;11.508;2023-12-22T08:02:32;97849.16;;;4.84;nan
21545;BME280;10933;50.754;11.508;2023-12-22T08:04:58;97835.22;;;5.14;nan
21545;BME280;10933;50.754;11.508;2023-12-22T08:07:25;97829.59;;;5.15;nan
21545;BME280;10933;50.754;11.508;2023-12-22T08:09:51;97832.06;;;5.22;nan
21545;BME280;10933;50.754;11.508;2023-12-22T08:12:17;97839.91;;;5.34;nan
21545;BME280;10933;50.754;11.508;2023-12-22T08:14:43;97815.72;;;5.18;nan
21545;BME280;10933;50.754;11.508;2023-12-22T08:17:10;97839.50;;;5.67;nan
21545;BME280;10933;50.754;11.508;2023-12-22T08:19:37;97833.09;;;5.68;nan
21545;BME280;10933;50.754;11.508;2023-12-22T08:22:03;97861.22;;;6.84;nan
21545;BME280;10933;50.754;11.508;2023-12-22T08:24:29;97832.81;;;6.47;nan
21545;BME280;10933;50.754;11.508;2023-12-22T08:26:55;97855.81;;;6.23;nan
21545;BME280;10933;50.754;11.508;2023-12-22T08:29:21;97841.78;;;5.90;nan
21545;BME280;10933;50.754;11.508;2023-12-22T08:31:48;97851.19;;;6.08;nan
21545;BME280;10933;50.754;11.508;2023-12-22T08:34:14;97850.69;;;6.22;nan
21545;BME280;10933;50.754;11.508;2023-12-22T08:36:40;97870.53;;;6.31;nan
21545;BME280;10933;50.754;11.508;2023-12-22T08:39:06;97873.50;;;6.24;nan
21545;BME280;10933;50.754;11.508;2023-12-22T08:41:33;97851.03;;;6.56;nan
21545;BME280;10933;50.754;11.508;2023-12-22T08:44:04;97873.56;;;6.80;nan
21545;BME280;10933;50.754;11.508;2023-12-22T08:46:30;97884.03;;;7.17;nan
21545;BME280;10933;50.754;11.508;2023-12-22T08:48:57;97899.84;;;7.29;nan
21545;BME280;10933;50.754;11.508;2023-12-22T08:51:28;97887.38;;;7.84;nan
21545;BME280;10933;50.754;11.508;2023-12-22T08:53:55;97918.44;;;8.00;nan
21545;BME280;10933;50.754;11.508;2023-12-22T08:56:22;97898.63;;;7.86;nan
21545;BME280;10933;50.754;11.508;2023-12-22T08:58:48;97920.16;;;7.60;nan
21545;BME280;10933;50.754;11.508;2023-12-22T09:01:18;97908.41;;;7.11;nan
21545;BME280;10933;50.754;11.508;2023-12-22T09:03:44;97915.38;;;6.96;nan
21545;BME280;10933;50.754;11.508;2023-12-22T09:06:16;97913.78;;;7.16;nan
21545;BME280;10933;50.754;11.508;2023-12-22T09:08:42;97931.69;;;7.71;nan
21545;BME280;10933;50.754;11.508;2023-12-22T09:11:10;97940.75;;;8.01;nan
21545;BME280;10933;50.754;11.508;2023-12-22T09:13:37;97950.41;;;8.07;nan
21545;BME280;10933;50.754;11.508;2023-12-22T09:16:03;97951.06;;;8.48;nan
21545;BME280;10933;50.754;11.508;2023-12-22T09:18:30;97940.75;;;8.01;nan
21545;BME280;10933;50.754;11.508;2023-12-22T09:20:56;97947.56;;;7.57;nan
21545;BME280;10933;50.754;11.508;2023-12-22T09:23:22;97970.66;;;7.28;nan
21545;BME280;10933;50.754;11.508;2023-12-22T09:25:48;97976.53;;;7.35;nan
21545;BME280;10933;50.754;11.508;2023-12-22T09:28:14;97982.97;;;7.59;nan
21545;BME280;10933;50.754;11.508;2023-12-22T09:30:40;97951.84;;;7.33;nan
21545;BME280;10933;50.754;11.508;2023-12-22T09:33:08;97951.34;;;7.26;nan
21545;BME280;10933;50.754;11.508;2023-12-22T09:35:35;97922.38;;;7.07;nan
21545;BME280;10933;50.754;11.508;2023-12-22T09:38:01;97962.56;;;7.58;nan
21545;BME280;10933;50.754;11.508;2023-12-22T09:40:27;97961.78;;;7.63;nan
21545;BME280;10933;50.754;11.508;2023-12-22T09:42:55;97959.38;;;7.41;nan
21545;BME280;10933;50.754;11.508;2023-12-22T09:45:23;97971.16;;;7.65;nan
21545;BME280;10933;50.754;11.508;2023-12-22T09:47:51;97968.75;;;7.64;nan
21545;BME280;10933;50.754;11.508;2023-12-22T09:50:20;97962.78;;;7.97;nan
21545;BME280;10933;50.754;11.508;2023-12-22T09:52:47;97980.00;;;7.61;nan
21545;BME280;10933;50.754;11.508;2023-12-22T09:55:14;97995.34;;;7.50;nan
21545;BME280;10933;50.754;11.508;2023-12-22T09:57:40;97973.03;;;7.60;nan
21545;BME280;10933;50.754;11.508;2023-12-22T10:00:09;97975.47;;;7.51;nan
21545;BME280;10933;50.754;11.508;2023-12-22T10:02:37;97986.19;;;7.56;nan
21545;BME280;10933;50.754;11.508;2023-12-22T10:05:03;97981.91;;;7.45;nan
21545;BME280;10933;50.754;11.508;2023-12-22T10:07:30;97994.78;;;7.63;nan
21545;BME280;10933;50.754;11.508;2023-12-22T10:09:58;97973.84;;;7.71;nan
21545;BME280;10933;50.754;11.508;2023-12-22T10:12:25;97977.56;;;7.75;nan
21545;BME280;10933;50.754;11.508;2023-12-22T10:14:53;97986.72;;;7.79;nan
21545;BME280;10933;50.754;11.508;2023-12-22T10:17:20;97975.72;;;7.65;nan
21545;BME280;10933;50.754;11.508;2023-12-22T10:19:46;97971.41;;;7.69;nan
21545;BME280;10933;50.754;11.508;2023-12-22T10:22:12;97979.75;;;7.67;nan
21545;BME280;10933;50.754;11.508;2023-12-22T10:24:43;97974.38;;;7.73;nan
21545;BME280;10933;50.754;11.508;2023-12-22T10:27:10;97977.09;;;7.52;nan
21545;BME280;10933;50.754;11.508;2023-12-22T10:29:37;97966.84;;;7.80;nan
21545;BME280;10933;50.754;11.508;2023-12-22T10:32:04;97980.81;;;7.56;nan
21545;BME280;10933;50.754;11.508;2023-12-22T10:34:31;97971.06;;;8.06;nan
21545;BME280;10933;50.754;11.508;2023-12-22T10:37:00;97991.03;;;7.29;nan
21545;BME280;10933;50.754;11.508;2023-12-22T10:39:28;98026.41;;;7.16;nan
21545;BME280;10933;50.754;11.508;2023-12-22T10:41:56;98028.56;;;7.34;nan
21545;BME280;10933;50.754;11.508;2023-12-22T10:44:26;98004.19;;;7.25;nan
21545;BME280;10933;50.754;11.508;2023-12-22T10:46:52;97989.88;;;6.79;nan
21545;BME280;10933;50.754;11.508;2023-12-22T10:49:21;97989.44;;;7.38;nan
21545;BME280;10933;50.754;11.508;2023-12-22T10:51:47;97985.13;;;7.12;nan
21545;BME280;10933;50.754;11.508;2023-12-22T10:54:14;97983.53;;;7.41;nan
21545;BME280;10933;50.754;11.508;2023-12-22T10:56:40;97973.59;;;7.16;nan
21545;BME280;10933;50.754;11.508;2023-12-22T10:59:08;97967.97;;;7.53;nan
21545;BME280;10933;50.754;11.508;2023-12-22T11:01:37;97947.56;;;7.06;nan
21545;BME280;10933;50.754;11.508;2023-12-22T11:04:07;97965.81;;;7.04;nan
21545;BME280;10933;50.754;11.508;2023-12-22T11:06:37;97977.09;;;7.42;nan
21545;BME280;10933;50.754;11.508;2023-12-22T11:09:08;97948.63;;;7.11;nan
21545;BME280;10933;50.754;11.508;2023-12-22T11:11:36;97951.84;;;7.07;nan
21545;BME280;10933;50.754;11.508;2023-12-22T11:14:03;97969.53;;;7.59;nan
21545;BME280;10933;50.754;11.508;2023-12-22T11:16:31;97986.72;;;7.48;nan
21545;BME280;10933;50.754;11.508;2023-12-22T11:19:00;97969.53;;;6.93;nan
21545;BME280;10933;50.754;11.508;2023-12-22T11:21:26;97958.78;;;6.83;nan
21545;BME280;10933;50.754;11.508;2023-12-22T11:23:54;97934.69;;;6.88;nan
21545;BME280;10933;50.754;11.508;2023-12-22T11:26:22;97949.66;;;6.69;nan
21545;BME280;10933;50.754;11.508;2023-12-22T11:28:50;97952.34;;;6.74;nan
21545;BME280;10933;50.754;11.508;2023-12-22T11:31:17;97938.97;;;6.79;nan
21545;BME280;10933;50.754;11.508;2023-12-22T11:33:45;97934.66;;;6.83;nan
21545;BME280;10933;50.754;11.508;2023-12-22T11:36:12;97913.50;;;6.92;nan
21545;BME280;10933;50.754;11.508;2023-12-22T11:38:39;97910.84;;;6.87;nan
21545;BME280;10933;50.754;11.508;2023-12-22T11:41:07;97902.50;;;6.63;nan
21545;BME280;10933;50.754;11.508;2023-12-22T11:43:36;97913.22;;;6.68;nan
21545;BME280;10933;50.754;11.508;2023-12-22T11:46:03;97908.41;;;6.75;nan
21545;BME280;10933;50.754;11.508;2023-12-22T11:48:30;97885.38;;;6.94;nan
21545;BME280;10933;50.754;11.508;2023-12-22T11:50:56;97890.19;;;7.07;nan
21545;BME280;10933;50.754;11.508;2023-12-22T11:53:24;97881.63;;;7.05;nan
21545;BME280;10933;50.754;11.508;2023-12-22T11:56:04;97898.50;;;7.26;nan
21545;BME280;10933;50.754;11.508;2023-12-22T11:58:45;97875.16;;;6.71;nan
21545;BME280;10933;50.754;11.508;2023-12-22T12:01:23;97878.38;;;6.83;nan
21545;BME280;10933;50.754;11.508;2023-12-22T12:03:58;97876.75;;;6.52;nan
21545;BME280;10933;50.754;11.508;2023-12-22T12:08:59;97852.09;;;6.60;nan
21545;BME280;10933;50.754;11.508;2023-12-22T12:14:23;97864.69;;;6.44;nan
21545;BME280;10933;50.754;11.508;2023-12-22T12:17:03;97841.09;;;6.46;nan
21545;BME280;10933;50.754;11.508;2023-12-22T12:19:33;97839.78;;;6.43;nan
21545;BME280;10933;50.754;11.508;2023-12-22T12:21:59;97869.03;;;6.91;nan
21545;BME280;10933;50.754;11.508;2023-12-22T12:24:27;97868.75;;;6.92;nan
21545;BME280;10933;50.754;11.508;2023-12-22T12:26:53;97863.63;;;6.86;nan
21545;BME280;10933;50.754;11.508;2023-12-22T12:29:21;97882.03;;;7.74;nan
21545;BME280;10933;50.754;11.508;2023-12-22T12:31:47;97855.34;;;7.07;nan
21545;BME280;10933;50.754;11.508;2023-12-22T12:34:14;97870.09;;;7.05;nan
21545;BME280;10933;50.754;11.508;2023-12-22T12:36:42;97862.50;;;7.48;nan
21545;BME280;10933;50.754;11.508;2023-12-22T12:39:08;97843.78;;;7.32;nan
21545;BME280;10933;50.754;11.508;2023-12-22T12:41:42;97843.00;;;7.12;nan
21545;BME280;10933;50.754;11.508;2023-12-22T12:44:10;97861.75;;;7.37;nan
21545;BME280;10933;50.754;11.508;2023-12-22T12:46:38;97826.31;;;7.45;nan
21545;BME280;10933;50.754;11.508;2023-12-22T12:49:08;97833.31;;;7.31;nan
21545;BME280;10933;50.754;11.508;2023-12-22T12:51:39;97852.00;;;7.66;nan
21545;BME280;10933;50.754;11.508;2023-12-22T12:54:07;97847.69;;;7.76;nan
21545;BME280;10933;50.754;11.508;2023-12-22T12:56:46;97845.63;;;7.52;nan
21545;BME280;10933;50.754;11.508;2023-12-22T12:59:16;97841.78;;;7.79;nan
21545;BME280;10933;50.754;11.508;2023-12-22T13:01:48;97815.53;;;7.55;nan
21545;BME280;10933;50.754;11.508;2023-12-22T13:04:14;97829.31;;;7.98;nan
21545;BME280;10933;50.754;11.508;2023-12-22T13:06:45;97826.03;;;7.47;nan
21545;BME280;10933;50.754;11.508;2023-12-22T13:09:11;97842.66;;;8.18;nan
21545;BME280;10933;50.754;11.508;2023-12-22T13:11:39;97843.53;;;8.04;nan
21545;BME280;10933;50.754;11.508;2023-12-22T13:14:05;97839.06;;;7.84;nan
21545;BME280;10933;50.754;11.508;2023-12-22T13:16:33;97826.28;;;7.55;nan
21545;BME280;10933;50.754;11.508;2023-12-22T13:19:00;97836.41;;;7.79;nan
21545;BME280;10933;50.754;11.508;2023-12-22T13:21:28;97852.38;;;8.09;nan
21545;BME280;10933;50.754;11.508;2023-12-22T13:24:15;97857.78;;;8.04;nan
21545;BME280;10933;50.754;11.508;2023-12-22T13:26:45;97840.06;;;7.98;nan
21545;BME280;10933;50.754;11.508;2023-12-22T13:29:12;97823.91;;;8.13;nan
21545;BME280;10933;50.754;11.508;2023-12-22T13:31:41;97837.38;;;8.03;nan